Time;durP1;ratioP1;P1;durP2;ratioP2;P2;SDS_P1;SDS_P2;PMS_P1;PMS_P2;Temp;Humidity;BMP_temperature;BMP_pressure;BME280_temperature;BME280_humidity;BME280_pressure;Samples;Min_cycle;Max_cycle;Signal;HPM_P1;HPM_P2
2023/02/08 00:02:05;;;;;;;18.10;11.13;;;;;;;-3.04;61.39;102168.31;10390575;28;20393;-66
2023/02/08 00:07:06;;;;;;;22.02;14.60;;;;;;;-3.02;61.40;102164.13;10391502;28;20433;-66
2023/02/08 00:12:08;;;;;;;19.50;11.85;;;;;;;-3.02;61.32;102163.28;10389964;28;20060;-66
2023/02/08 00:17:09;;;;;;;24.70;14.57;;;;;;;-3.07;61.29;102165.69;10391339;28;20049;-66
2023/02/08 00:22:11;;;;;;;21.40;13.35;;;;;;;-3.15;61.46;102171.38;10389740;28;20060;-66
2023/02/08 00:27:13;;;;;;;22.67;12.48;;;;;;;-3.17;61.71;102179.03;10390779;28;20049;-66
2023/02/08 00:32:14;;;;;;;20.85;12.45;;;;;;;-3.20;61.81;102178.91;10389122;28;20076;-66
2023/02/08 00:37:16;;;;;;;18.83;11.88;;;;;;;-3.21;61.84;102174.63;10404749;28;20159;-66
2023/02/08 00:42:18;;;;;;;20.27;11.77;;;;;;;-3.22;61.69;102174.59;10387735;28;20049;-66
2023/02/08 00:47:19;;;;;;;17.98;11.75;;;;;;;-3.28;61.74;102162.44;10391101;28;20053;-66
2023/02/08 00:52:21;;;;;;;22.25;12.50;;;;;;;-3.30;61.84;102164.09;10388618;28;20056;-66
2023/02/08 00:57:23;;;;;;;22.00;12.55;;;;;;;-3.31;61.98;102166.59;10389541;28;20046;-66
2023/02/08 01:02:25;;;;;;;20.05;11.80;;;;;;;-3.31;61.85;102151.25;10388842;28;20061;-66
2023/02/08 01:07:27;;;;;;;19.67;12.30;;;;;;;-3.35;61.92;102164.78;10389086;28;20076;-66
2023/02/08 01:12:28;;;;;;;23.60;12.82;;;;;;;-3.44;61.71;102169.56;10386669;28;20076;-66
2023/02/08 01:17:30;;;;;;;23.30;12.98;;;;;;;-3.60;61.96;102159.66;10389548;28;20065;-66
2023/02/08 01:22:31;;;;;;;23.85;13.18;;;;;;;-3.69;62.20;102161.09;10387647;28;20072;-66
2023/02/08 01:27:33;;;;;;;22.95;12.98;;;;;;;-3.64;62.25;102158.72;10388269;28;20054;-66
2023/02/08 01:32:35;;;;;;;21.23;13.02;;;;;;;-3.58;62.37;102152.91;10386795;28;20054;-66
2023/02/08 01:37:36;;;;;;;19.02;12.60;;;;;;;-3.57;62.27;102162.34;10388305;28;20524;-66
2023/02/08 01:42:38;;;;;;;21.65;12.90;;;;;;;-3.71;62.48;102162.75;10385742;28;20058;-66
2023/02/08 01:47:44;;;;;;;20.30;12.38;;;;;;;-3.69;62.53;102157.72;10381377;28;20045;-66
2023/02/08 01:52:46;;;;;;;19.10;12.30;;;;;;;-3.72;62.28;102152.47;10385546;28;20332;-66
2023/02/08 01:57:51;;;;;;;19.85;12.43;;;;;;;-3.86;62.42;102152.03;10373899;28;20501;-66
2023/02/08 02:02:55;;;;;;;21.98;12.55;;;;;;;-3.91;62.36;102153.53;10372321;28;20053;-66
2023/02/08 02:07:57;;;;;;;20.50;12.75;;;;;;;-3.96;62.61;102149.09;10373510;28;20048;-66
2023/02/08 02:13:06;;;;;;;22.38;14.10;;;;;;;-3.97;62.82;102145.66;10375988;28;20049;-66
2023/02/08 02:18:09;;;;;;;21.95;13.52;;;;;;;-3.91;62.76;102142.44;10392822;28;20049;-66
2023/02/08 02:23:31;;;;;;;23.65;12.80;;;;;;;-3.86;62.66;102149.47;10374945;28;20379;-66
2023/02/08 02:29:09;;;;;;;21.85;13.40;;;;;;;-3.93;63.01;102138.97;10376137;28;20312;-66
2023/02/08 02:34:21;;;;;;;22.23;12.68;;;;;;;-3.93;62.91;102132.16;10376800;28;20060;-66
2023/02/08 02:39:37;;;;;;;;;;;;;;;-4.12;63.39;102134.94;10372927;28;20056;-66
2023/02/08 02:44:51;;;;;;;20.63;12.07;;;;;;;-3.99;62.91;102144.75;10378560;28;19948;-66
2023/02/08 02:50:01;;;;;;;21.67;11.77;;;;;;;-3.97;62.70;102142.22;10388182;28;20049;-66
2023/02/08 02:55:13;;;;;;;19.25;11.45;;;;;;;-4.01;62.88;102141.28;10373608;28;20516;-66
2023/02/08 03:00:23;;;;;;;23.00;14.23;;;;;;;-4.22;62.88;102135.41;10371519;28;20124;-66
2023/02/08 03:05:26;;;;;;;22.55;12.48;;;;;;;-4.25;63.07;102139.53;10383616;28;20056;-66
2023/02/08 03:10:52;;;;;;;22.50;13.18;;;;;;;-4.23;63.55;102148.13;10397801;28;20057;-66
2023/02/08 03:16:15;;;;;;;19.48;12.13;;;;;;;-4.18;63.30;102147.47;10377038;28;20076;-66
2023/02/08 03:21:32;;;;;;;20.90;12.27;;;;;;;-4.10;63.11;102150.31;10380827;28;20045;-66
2023/02/08 03:26:57;;;;;;;19.90;12.30;;;;;;;-4.09;62.93;102150.34;10382791;28;20421;-65
2023/02/08 03:32:09;;;;;;;19.75;12.18;;;;;;;-4.11;63.02;102151.13;10380043;28;20041;-66
2023/02/08 03:37:19;;;;;;;19.27;12.20;;;;;;;-4.09;63.00;102142.69;10393234;28;20057;-66
2023/02/08 03:42:25;;;;;;;21.02;11.95;;;;;;;-4.11;62.85;102144.31;10376877;28;20073;-66
2023/02/08 03:47:35;;;;;;;17.13;11.02;;;;;;;-4.13;62.87;102147.63;10379108;28;20504;-66
2023/02/08 03:52:38;;;;;;;20.75;13.02;;;;;;;-4.17;63.03;102139.00;10374974;28;20593;-66
2023/02/08 03:57:48;;;;;;;20.35;13.15;;;;;;;-4.17;63.09;102136.44;10381114;28;20056;-66
2023/02/08 04:02:58;;;;;;;21.60;13.30;;;;;;;-4.23;63.03;102138.78;10376296;28;20053;-66
2023/02/08 04:08:00;;;;;;;24.95;13.30;;;;;;;-4.41;62.85;102150.91;10376319;28;20060;-66
2023/02/08 04:13:01;;;;;;;22.83;13.70;;;;;;;-4.48;62.98;102151.50;10372950;28;20054;-66
2023/02/08 04:18:04;;;;;;;20.17;12.80;;;;;;;-4.45;63.11;102151.63;10379160;28;20912;-66
2023/02/08 04:23:05;;;;;;;21.80;13.13;;;;;;;-4.49;63.15;102152.31;10396823;28;20042;-66
2023/02/08 04:28:07;;;;;;;20.98;13.23;;;;;;;-4.47;63.26;102155.81;10380691;28;20045;-66
2023/02/08 04:33:11;;;;;;;20.58;13.30;;;;;;;-4.44;63.24;102150.78;10379175;28;20144;-66
2023/02/08 04:38:13;;;;;;;19.45;12.38;;;;;;;-4.43;63.23;102138.91;10382394;28;20693;-66
2023/02/08 04:43:14;;;;;;;17.70;11.65;;;;;;;-4.44;63.22;102142.28;10377654;28;20057;-66
2023/02/08 04:48:16;;;;;;;19.92;12.73;;;;;;;-4.44;63.00;102138.03;10377256;28;20190;-66
2023/02/08 04:53:18;;;;;;;18.50;12.25;;;;;;;-4.45;63.05;102131.19;10374167;28;20044;-65
2023/02/08 04:58:20;;;;;;;19.27;12.63;;;;;;;-4.46;63.12;102132.00;10381432;28;20042;-65
2023/02/08 05:03:21;;;;;;;22.98;12.80;;;;;;;-4.46;63.01;102123.47;10372914;28;20061;-65
2023/02/08 05:08:23;;;;;;;18.38;11.52;;;;;;;-4.52;63.00;102132.66;10379479;28;20470;-65
2023/02/08 05:13:25;;;;;;;19.48;12.43;;;;;;;-4.53;63.03;102130.03;10385531;28;20144;-65
2023/02/08 05:18:26;;;;;;;19.10;11.82;;;;;;;-4.56;63.02;102129.91;10396743;28;20417;-65
2023/02/08 05:23:28;;;;;;;19.17;12.40;;;;;;;-4.59;63.00;102130.66;10388434;28;20050;-65
2023/02/08 05:28:30;;;;;;;22.55;12.77;;;;;;;-4.69;63.05;102135.41;10373547;28;20401;-66
2023/02/08 05:33:31;;;;;;;21.98;13.27;;;;;;;-4.78;63.13;102141.03;10374440;28;20049;-65
2023/02/08 05:38:33;;;;;;;21.73;13.10;;;;;;;-4.76;63.04;102136.00;10377419;28;20050;-65
2023/02/08 05:43:35;;;;;;;19.27;12.05;;;;;;;-4.79;63.21;102138.44;10370830;28;20041;-65
2023/02/08 05:48:37;;;;;;;34.55;14.68;;;;;;;-4.83;62.99;102146.81;10376042;28;20053;-65
2023/02/08 05:53:39;;;;;;;24.40;13.23;;;;;;;-4.90;63.23;102152.47;10372235;28;20038;-65
2023/02/08 05:58:40;;;;;;;26.52;14.95;;;;;;;-4.83;63.16;102157.00;10374219;28;20759;-65
2023/02/08 06:03:42;;;;;;;24.50;14.27;;;;;;;-4.79;63.01;102162.25;10361074;28;20055;-65
2023/02/08 06:08:44;;;;;;;23.85;13.90;;;;;;;-4.79;63.28;102158.88;10376533;28;20115;-65
2023/02/08 06:13:46;;;;;;;21.70;13.05;;;;;;;-4.76;63.05;102158.97;10371543;28;20501;-65
2023/02/08 06:18:47;;;;;;;24.75;13.18;;;;;;;-4.79;63.04;102163.97;10373773;28;20501;-65
2023/02/08 06:23:49;;;;;;;24.27;13.20;;;;;;;-4.84;63.01;102171.44;10368912;28;20585;-65
2023/02/08 06:28:51;;;;;;;21.35;12.95;;;;;;;-4.82;63.04;102158.72;10374743;28;20049;-65
2023/02/08 06:33:52;;;;;;;20.48;12.48;;;;;;;-4.82;63.00;102168.94;10368828;28;20271;-64
2023/02/08 06:38:54;;;;;;;20.15;12.40;;;;;;;-4.83;63.13;102168.06;10374027;28;20116;-65
2023/02/08 06:43:58;;;;;;;19.95;12.75;;;;;;;-4.79;63.10;102176.72;10371466;28;20049;-65
2023/02/08 06:48:59;;;;;;;21.25;12.55;;;;;;;-4.77;63.06;102178.50;10373610;28;20057;-65
2023/02/08 06:54:01;;;;;;;23.75;13.40;;;;;;;-4.82;62.69;102168.94;10371820;28;20056;-65
2023/02/08 06:59:03;;;;;;;20.90;12.68;;;;;;;-4.84;62.85;102171.44;10372857;28;20074;-65
2023/02/08 07:04:04;;;;;;;23.55;13.48;;;;;;;-4.77;62.80;102172.56;10370417;28;20084;-65
2023/02/08 07:09:06;;;;;;;21.10;12.88;;;;;;;-4.78;62.71;102171.66;10364559;28;20486;-65
2023/02/08 07:14:11;;;;;;;32.00;13.45;;;;;;;-4.75;62.64;102176.03;10366621;28;20271;-65
2023/02/08 07:19:13;;;;;;;21.20;12.95;;;;;;;-4.76;62.42;102164.94;10372943;28;20064;-65
2023/02/08 07:24:14;;;;;;;21.73;13.23;;;;;;;-4.79;62.54;102158.88;10370035;28;20057;-65
2023/02/08 07:29:16;;;;;;;22.35;14.57;;;;;;;-4.73;62.55;102165.03;10371650;28;20162;-65
2023/02/08 07:34:20;;;;;;;28.08;13.50;;;;;;;-4.60;62.80;102161.25;10369629;28;20054;-65
2023/02/08 07:39:24;;;;;;;21.55;13.77;;;;;;;-4.42;62.88;102156.81;10374420;28;20271;-65
2023/02/08 07:44:26;;;;;;;23.10;13.55;;;;;;;-4.28;62.75;102147.13;10371276;28;20087;-65
2023/02/08 07:49:27;;;;;;;26.60;14.50;;;;;;;-4.10;62.70;102147.75;10375042;28;20512;-65
2023/02/08 07:54:29;;;;;;;23.33;14.68;;;;;;;-3.91;62.45;102145.88;10378495;28;20502;-65
2023/02/08 07:59:31;;;;;;;23.83;14.73;;;;;;;-3.88;62.36;102148.56;10379631;28;20710;-65
2023/02/08 08:04:32;;;;;;;25.40;15.43;;;;;;;-3.71;62.02;102144.84;10375311;28;20052;-65
2023/02/08 08:09:34;;;;;;;26.75;14.82;;;;;;;-3.40;61.92;102141.59;10377681;28;20057;-66
2023/02/08 08:14:35;;;;;;;31.80;15.93;;;;;;;-3.06;61.57;102133.28;10378721;28;20049;-66
2023/02/08 08:19:37;;;;;;;25.45;15.43;;;;;;;-2.78;61.44;102134.97;10371335;28;20048;-66
2023/02/08 08:24:39;;;;;;;28.60;15.75;;;;;;;-2.59;61.15;102132.13;10376366;28;20046;-66
2023/02/08 08:29:41;;;;;;;36.05;22.52;;;;;;;-2.64;61.10;102126.88;10372463;28;20049;-65
2023/02/08 08:34:42;;;;;;;32.63;20.08;;;;;;;-2.52;61.17;102127.22;10371366;28;20061;-65
2023/02/08 08:39:44;;;;;;;32.63;18.35;;;;;;;-2.26;61.13;102126.22;10375866;28;20153;-66
2023/02/08 08:44:48;;;;;;;34.53;20.35;;;;;;;-2.17;61.28;102130.75;10375171;28;20087;-66
2023/02/08 08:49:52;;;;;;;29.83;18.23;;;;;;;-1.86;60.68;102132.41;10376654;28;20111;-65
2023/02/08 08:54:56;;;;;;;32.67;18.80;;;;;;;-1.61;60.19;102132.16;10378992;28;20053;-65
2023/02/08 08:59:59;;;;;;;32.42;19.95;;;;;;;-1.26;59.36;102129.63;10376151;28;20056;-65
2023/02/08 09:05:04;;;;;;;35.08;19.58;;;;;;;-1.06;58.81;102122.38;10374969;28;20489;-65
2023/02/08 09:10:08;;;;;;;31.23;19.85;;;;;;;-0.90;58.47;102118.44;10374804;28;20052;-64
2023/02/08 09:15:12;;;;;;;31.25;18.95;;;;;;;-0.70;58.16;102122.31;10386212;28;20420;-65
2023/02/08 09:20:16;;;;;;;39.63;22.45;;;;;;;-0.56;57.25;102121.75;10375495;28;20534;-65
2023/02/08 09:25:18;;;;;;;35.05;21.38;;;;;;;-0.71;56.85;102121.44;10375312;28;20060;-65
2023/02/08 09:30:20;;;;;;;32.53;20.27;;;;;;;-0.71;56.77;102116.28;10373318;28;20049;-64
2023/02/08 09:35:22;;;;;;;29.88;18.88;;;;;;;-0.59;56.60;102119.09;10372261;28;20061;-64
2023/02/08 09:40:27;;;;;;;34.13;20.00;;;;;;;-0.62;56.74;102111.34;10382144;28;20213;-64
2023/02/08 09:45:45;;;;;;;31.58;18.42;;;;;;;-0.58;56.12;102109.72;10369563;28;20053;-64
2023/02/08 09:51:09;;;;;;;33.80;17.67;;;;;;;-0.33;55.69;102110.19;10374827;28;20053;-64
2023/02/08 09:56:15;;;;;;;30.83;19.05;;;;;;;-0.23;56.20;102110.38;10363455;28;20062;-64
2023/02/08 10:01:25;;;;;;;28.50;16.63;;;;;;;0.01;55.72;102105.69;10374513;28;20493;-64
2023/02/08 10:06:29;;;;;;;29.13;16.88;;;;;;;0.14;55.21;102107.59;10368396;28;20045;-64
2023/02/08 10:12:04;;;;;;;25.65;17.05;;;;;;;0.23;54.70;102100.06;10373504;28;20514;-64
2023/02/08 10:17:45;;;;;;;28.10;17.00;;;;;;;0.33;53.54;102094.22;10368607;28;20067;-64
2023/02/08 10:22:50;;;;;;;24.90;15.35;;;;;;;0.55;53.59;102086.00;10375834;28;20402;-64
2023/02/08 10:28:10;;;;;;;24.05;14.77;;;;;;;0.62;53.80;102090.41;10376600;28;20421;-64
2023/02/08 10:33:25;;;;;;;26.15;15.10;;;;;;;0.81;52.66;102087.22;10376257;28;20056;-65
2023/02/08 10:38:31;;;;;;;22.58;13.40;;;;;;;0.97;52.59;102086.59;10373612;28;20045;-64
2023/02/08 10:44:02;;;;;;;21.63;13.80;;;;;;;1.11;49.55;102074.78;10375427;28;20201;-64
2023/02/08 10:49:04;;;;;;;24.20;14.00;;;;;;;1.27;51.43;102065.53;10376422;28;20052;-64
2023/02/08 10:54:11;;;;;;;22.85;13.60;;;;;;;1.52;50.16;102064.97;10392710;28;20538;-64
2023/02/08 10:59:21;;;;;;;22.23;13.45;;;;;;;1.82;49.64;102064.41;10375611;28;20126;-65
2023/02/08 11:04:23;;;;;;;18.45;12.35;;;;;;;1.93;49.37;102044.75;10373674;28;20053;-64
2023/02/08 11:09:30;;;;;;;22.60;12.90;;;;;;;1.95;49.01;102045.63;10374482;28;20426;-65
2023/02/08 11:14:39;;;;;;;22.52;12.35;;;;;;;2.06;48.43;102042.28;10375058;28;20056;-65
2023/02/08 11:19:49;;;;;;;16.95;11.63;;;;;;;1.99;48.11;102030.16;10372088;28;20059;-65
2023/02/08 11:25:00;;;;;;;16.42;10.50;;;;;;;2.00;46.30;102026.75;10375469;28;20053;-64
2023/02/08 11:30:14;;;;;;;17.55;9.32;;;;;;;2.05;45.02;102011.31;10383976;28;20056;-65
2023/02/08 11:35:24;;;;;;;18.88;9.98;;;;;;;2.11;43.67;102009.59;10384194;28;20050;-64
2023/02/08 11:40:41;;;;;;;16.92;10.70;;;;;;;2.23;45.75;102004.53;10385230;28;20042;-64
2023/02/08 11:45:45;;;;;;;16.92;10.85;;;;;;;2.26;45.69;102002.81;10379372;28;20061;-63
2023/02/08 11:50:53;;;;;;;16.27;10.65;;;;;;;2.27;45.01;101992.53;10380905;28;20096;-65
2023/02/08 11:56:21;;;;;;;18.02;10.77;;;;;;;2.41;43.92;101982.28;10382355;28;20064;-65
2023/02/08 12:01:28;;;;;;;21.52;11.68;;;;;;;2.65;44.77;101977.25;10362697;28;20057;-65
2023/02/08 12:06:48;;;;;;;16.30;10.80;;;;;;;2.80;45.02;101965.28;10379978;28;20533;-65
2023/02/08 12:12:05;;;;;;;16.70;11.23;;;;;;;2.93;43.40;101971.34;10374413;28;20049;-64
2023/02/08 12:17:41;;;;;;;15.82;9.77;;;;;;;2.99;42.01;101968.78;10381000;28;20501;-65
2023/02/08 12:23:12;;;;;;;15.82;10.32;;;;;;;3.11;42.88;101960.22;10372330;28;20538;-65
2023/02/08 12:28:52;;;;;;;16.92;10.02;;;;;;;3.30;42.28;101956.81;10379005;28;20045;-65
2023/02/08 12:34:24;;;;;;;18.63;11.13;;;;;;;3.43;41.23;101945.63;10367771;28;20049;-65
2023/02/08 12:45:18;;;;;;;15.48;9.27;;;;;;;3.74;41.13;101922.34;10362286;28;20123;-64
2023/02/08 12:50:25;;;;;;;14.48;8.60;;;;;;;3.90;42.18;101909.44;10377329;28;20555;-64
2023/02/08 12:55:34;;;;;;;12.95;8.43;;;;;;;3.91;40.18;101903.38;10377126;28;20418;-65
2023/02/08 13:00:39;;;;;;;12.60;7.85;;;;;;;3.94;40.34;101899.09;10371901;28;20046;-65
2023/02/08 13:05:48;;;;;;;13.07;8.00;;;;;;;4.07;39.03;101889.59;10370704;28;21134;-65
2023/02/08 13:11:11;;;;;;;13.23;8.05;;;;;;;4.19;39.44;101880.03;10372897;28;20049;-65
2023/02/08 13:16:30;;;;;;;12.75;7.70;;;;;;;4.20;38.32;101871.41;10382541;28;20172;-64
2023/02/08 13:21:42;;;;;;;12.05;7.50;;;;;;;4.40;38.08;101868.75;10376510;28;20122;-65
2023/02/08 13:26:44;;;;;;;10.27;6.63;;;;;;;4.46;39.38;101864.41;10374360;28;20517;-65
2023/02/08 13:31:52;;;;;;;10.75;7.20;;;;;;;4.53;37.69;101860.94;10370507;28;20046;-65
2023/02/08 13:37:00;;;;;;;10.60;6.55;;;;;;;4.61;37.88;101855.72;10375657;28;20429;-65
2023/02/08 13:42:25;;;;;;;9.68;6.13;;;;;;;4.72;36.20;101847.88;10369156;28;20061;-64
2023/02/08 13:47:36;;;;;;;10.43;6.35;;;;;;;4.45;34.15;101843.69;10373845;28;20055;-65
2023/02/08 13:52:38;;;;;;;11.50;6.65;;;;;;;4.54;37.93;101838.44;10372558;28;20135;-65
2023/02/08 13:57:52;;;;;;;11.57;6.15;;;;;;;4.69;36.19;101838.38;10377823;28;20449;-65
2023/02/08 14:03:02;;;;;;;11.18;6.03;;;;;;;4.72;36.53;101838.34;10372236;28;20076;-65
2023/02/08 14:08:06;;;;;;;11.43;6.80;;;;;;;4.68;36.11;101834.94;10377043;28;20282;-65
2023/02/08 14:13:24;;;;;;;9.23;5.65;;;;;;;4.81;33.70;101840.03;10372795;28;20057;-64
2023/02/08 14:18:27;;;;;;;9.75;6.13;;;;;;;4.84;35.26;101825.31;10373609;28;20050;-65
2023/02/08 14:23:31;;;;;;;9.48;5.43;;;;;;;4.97;36.50;101818.31;10374073;28;20061;-64
2023/02/08 14:28:37;;;;;;;10.18;6.00;;;;;;;4.80;35.07;101815.84;10375545;28;20048;-64
2023/02/08 14:33:48;;;;;;;10.25;5.97;;;;;;;4.82;34.98;101819.28;10370840;28;20045;-65
2023/02/08 14:39:04;;;;;;;13.07;6.05;;;;;;;4.72;34.84;101797.75;10374817;28;20671;-65
2023/02/08 14:44:36;;;;;;;9.63;5.78;;;;;;;4.64;33.22;101794.34;10369731;28;20555;-65
2023/02/08 14:49:42;;;;;;;12.55;5.88;;;;;;;4.63;35.35;101803.00;10374989;28;20409;-65
2023/02/08 14:54:53;;;;;;;10.90;6.05;;;;;;;4.56;34.81;101793.53;10372634;28;20075;-65
2023/02/08 14:59:59;;;;;;;11.75;6.53;;;;;;;4.53;35.22;101793.56;10369103;28;20049;-64
2023/02/08 15:05:02;;;;;;;9.50;5.82;;;;;;;4.52;35.31;101796.16;10370361;28;20073;-65
2023/02/08 15:10:13;;;;;;;10.80;6.07;;;;;;;4.39;35.33;101776.38;10370664;28;20045;-65
2023/02/08 15:15:37;;;;;;;9.75;5.78;;;;;;;4.32;33.68;101777.25;10362884;28;20057;-65
2023/02/08 15:20:39;;;;;;;12.00;5.47;;;;;;;4.38;35.34;101785.88;10367507;28;20056;-64
2023/02/08 15:25:41;;;;;;;9.88;5.32;;;;;;;4.20;34.81;101782.50;10368416;28;20076;-65
2023/02/08 15:30:51;;;;;;;8.73;5.65;;;;;;;4.15;35.69;101777.31;10367262;28;20205;-64
2023/02/08 15:36:02;;;;;;;9.00;5.25;;;;;;;3.94;35.59;101773.97;10366101;28;20139;-64
2023/02/08 15:41:23;;;;;;;8.65;5.80;;;;;;;3.76;35.33;101760.19;10370928;28;20513;-65
2023/02/08 15:46:26;;;;;;;11.25;5.47;;;;;;;3.62;36.54;101767.13;10372167;28;20052;-65
2023/02/08 15:51:28;;;;;;;8.60;5.47;;;;;;;3.48;36.68;101760.25;10369467;28;21003;-65
2023/02/08 15:56:36;;;;;;;10.07;5.95;;;;;;;3.31;36.66;101755.13;10368550;28;20575;-65
2023/02/08 16:01:46;;;;;;;10.30;5.85;;;;;;;3.21;37.00;101752.53;10368918;28;20057;-65
2023/02/08 16:06:54;;;;;;;9.32;5.72;;;;;;;3.03;37.13;101743.94;10370855;28;20049;-65
2023/02/08 16:11:59;;;;;;;9.05;5.80;;;;;;;2.84;38.73;101751.69;10369802;28;20080;-65
2023/02/08 16:17:01;;;;;;;10.63;6.20;;;;;;;2.63;39.46;101744.78;10376825;28;20441;-65
2023/02/08 16:22:11;;;;;;;12.73;7.03;;;;;;;2.36;39.17;101746.47;10376711;28;20077;-65
2023/02/08 16:27:25;;;;;;;13.43;7.73;;;;;;;2.16;38.82;101748.97;10380655;28;20470;-65
2023/02/08 16:32:34;;;;;;;10.50;6.75;;;;;;;2.01;40.05;101747.19;10375905;28;20042;-65
2023/02/08 16:37:36;;;;;;;13.18;6.72;;;;;;;1.82;40.47;101749.69;10375955;28;20053;-65
2023/02/08 16:42:38;;;;;;;11.23;6.57;;;;;;;1.69;40.86;101745.31;10375506;28;20041;-65
2023/02/08 16:47:51;;;;;;;13.07;7.97;;;;;;;1.55;41.07;101752.09;10374413;28;20045;-65
2023/02/08 16:53:01;;;;;;;12.88;8.10;;;;;;;1.31;42.75;101751.13;10376018;28;20041;-65
2023/02/08 16:58:03;;;;;;;13.23;7.72;;;;;;;1.01;43.40;101756.06;10377867;28;20052;-64
2023/02/08 17:03:04;;;;;;;13.63;8.32;;;;;;;0.91;42.50;101740.50;10374639;28;20397;-64
2023/02/08 17:08:20;;;;;;;15.07;8.10;;;;;;;0.89;42.78;101752.50;10378165;28;20084;-65
2023/02/08 17:13:23;;;;;;;14.13;8.73;;;;;;;0.70;43.03;101748.03;10379317;28;20507;-65
2023/02/08 17:18:25;;;;;;;14.63;8.70;;;;;;;0.54;44.11;101739.31;10379480;28;20101;-65
2023/02/08 17:23:26;;;;;;;17.75;8.70;;;;;;;0.43;44.32;101741.78;10373011;28;20042;-65
2023/02/08 17:28:30;;;;;;;15.77;8.77;;;;;;;0.39;44.74;101734.88;10374229;28;20051;-64
2023/02/08 17:33:35;;;;;;;17.00;9.25;;;;;;;0.32;44.62;101738.22;10376286;28;20049;-65
2023/02/08 17:38:38;;;;;;;15.77;9.15;;;;;;;0.20;45.89;101734.69;10368724;28;20064;-65
2023/02/08 17:43:39;;;;;;;16.20;9.07;;;;;;;0.02;46.36;101737.88;10369246;28;20413;-65
2023/02/08 17:48:41;;;;;;;16.92;9.60;;;;;;;-0.17;47.02;101735.94;10374807;28;20289;-64
2023/02/08 17:53:44;;;;;;;22.17;9.35;;;;;;;-0.28;47.68;101740.09;10377323;28;20042;-65
2023/02/08 17:58:48;;;;;;;17.17;10.05;;;;;;;-0.33;47.93;101734.00;10383797;28;20053;-64
2023/02/08 18:03:55;;;;;;;17.90;10.07;;;;;;;-0.43;48.68;101727.88;10382335;28;20060;-65
2023/02/08 18:08:57;;;;;;;21.40;11.23;;;;;;;-0.50;48.94;101720.94;10374449;28;20216;-66
2023/02/08 18:13:59;;;;;;;14.98;9.48;;;;;;;-0.54;49.25;101721.75;10375205;28;20486;-65
2023/02/08 18:19:00;;;;;;;20.83;10.98;;;;;;;-0.66;49.25;101734.44;10374699;28;20049;-65
2023/02/08 18:24:03;;;;;;;25.75;13.48;;;;;;;-0.81;50.05;101731.63;10373417;28;20076;-65
2023/02/08 18:29:05;;;;;;;22.42;13.18;;;;;;;-0.87;49.97;101749.50;10376489;28;20053;-65
2023/02/08 18:34:08;;;;;;;45.95;12.65;;;;;;;-0.99;50.79;101733.91;10371190;28;20077;-65
2023/02/08 18:39:14;;;;;;;19.35;8.55;;;;;;;-1.08;50.94;101738.06;10367380;28;20053;-65
2023/02/08 18:44:16;;;;;;;20.02;10.25;;;;;;;-1.15;51.12;101743.06;10375186;28;20053;-66
2023/02/08 18:49:18;;;;;;;16.70;10.32;;;;;;;-1.25;50.72;101740.34;10374635;28;20051;-65
2023/02/08 18:54:20;;;;;;;17.73;10.13;;;;;;;-1.33;51.38;101739.34;10392387;28;20049;-65
2023/02/08 18:59:22;;;;;;;20.38;12.18;;;;;;;-1.41;51.65;101743.47;10372918;28;20057;-65
2023/02/08 19:04:24;;;;;;;15.85;10.05;;;;;;;-1.51;52.11;101744.16;10376047;28;20050;-65
2023/02/08 19:09:27;;;;;;;16.13;9.57;;;;;;;-1.60;52.64;101757.69;10374841;28;20058;-65
2023/02/08 19:14:28;;;;;;;17.05;9.98;;;;;;;-1.63;52.80;101757.59;10376178;28;20429;-65
2023/02/08 19:19:32;;;;;;;16.23;9.65;;;;;;;-1.71;53.01;101755.72;10375269;28;20133;-66
2023/02/08 19:24:40;;;;;;;17.15;9.18;;;;;;;-1.75;53.35;101756.50;10372219;28;20518;-66
2023/02/08 19:29:42;;;;;;;16.98;9.82;;;;;;;-1.83;53.42;101766.63;10370317;28;20494;-66
2023/02/08 19:34:44;;;;;;;15.70;9.20;;;;;;;-1.86;53.92;101763.16;10373105;28;20608;-66
2023/02/08 19:39:45;;;;;;;15.77;9.30;;;;;;;-1.91;54.09;101755.34;10370973;28;20208;-66
2023/02/08 19:44:47;;;;;;;21.33;9.30;;;;;;;-2.03;54.40;101756.00;10382755;28;20049;-65
2023/02/08 19:49:48;;;;;;;16.02;9.55;;;;;;;-2.06;54.68;101757.59;10382402;28;20050;-66
2023/02/08 19:54:51;;;;;;;15.05;9.35;;;;;;;-2.11;54.72;101752.41;10382997;28;20052;-66
2023/02/08 19:59:53;;;;;;;15.80;9.10;;;;;;;-2.21;54.93;101739.38;10382404;28;20838;-66
2023/02/08 20:04:57;;;;;;;17.30;9.65;;;;;;;-2.21;54.77;101740.22;10383572;28;20116;-65
2023/02/08 20:09:59;;;;;;;17.25;10.05;;;;;;;-2.34;55.25;101733.13;10381907;28;20056;-66
2023/02/08 20:15:00;;;;;;;16.88;10.80;;;;;;;-2.36;55.50;101733.91;10377862;28;20037;-66
2023/02/08 20:20:02;;;;;;;18.85;10.27;;;;;;;-2.46;55.66;101731.97;10382758;28;20037;-66
2023/02/08 20:25:04;;;;;;;15.88;9.52;;;;;;;-2.51;55.91;101731.88;10383824;28;20116;-68
2023/02/08 20:30:06;;;;;;;17.92;11.07;;;;;;;-2.51;55.77;101734.44;10379466;28;20041;-68
2023/02/08 20:35:08;;;;;;;17.90;10.35;;;;;;;-2.56;56.14;101735.19;10381613;28;20530;-68
2023/02/08 20:40:11;;;;;;;16.45;9.90;;;;;;;-2.61;56.29;101739.34;10382873;28;20497;-68
2023/02/08 20:45:12;;;;;;;17.02;10.00;;;;;;;-2.67;56.47;101731.53;10379895;28;20053;-68
2023/02/08 20:50:16;;;;;;;17.10;10.30;;;;;;;-2.72;56.68;101728.88;10383869;28;20140;-68
2023/02/08 20:55:20;;;;;;;19.55;10.25;;;;;;;-2.85;56.76;101730.28;10378761;28;20065;-68
2023/02/08 21:00:22;;;;;;;15.70;9.75;;;;;;;-2.85;57.08;101726.84;10376847;28;20052;-68
2023/02/08 21:05:30;;;;;;;15.38;9.02;;;;;;;-2.88;56.98;101726.78;10379341;28;20045;-68
2023/02/08 21:10:35;;;;;;;17.92;9.93;;;;;;;-2.88;57.13;101721.66;10383572;28;20049;-68
2023/02/08 21:15:44;;;;;;;16.15;9.68;;;;;;;-2.92;57.25;101717.31;10386855;28;20053;-68
2023/02/08 21:20:46;;;;;;;24.17;13.80;;;;;;;-2.97;57.35;101716.31;10379972;28;20056;-68
2023/02/08 21:25:48;;;;;;;20.58;12.27;;;;;;;-3.01;57.63;101709.41;10375469;28;20041;-68
2023/02/08 21:30:57;;;;;;;16.23;9.88;;;;;;;-3.04;57.63;101709.34;10379723;28;20041;-68
2023/02/08 21:36:07;;;;;;;16.98;10.10;;;;;;;-3.16;57.54;101698.81;10377643;28;20049;-68
2023/02/08 21:41:13;;;;;;;15.90;8.90;;;;;;;-3.26;57.40;101694.31;10375894;28;20517;-68
2023/02/08 21:46:15;;;;;;;16.63;9.70;;;;;;;-3.40;57.91;101696.53;10384944;28;20050;-68
2023/02/08 21:56:41;;;;;;;27.30;18.05;;;;;;;-3.48;58.09;101685.25;10380668;28;20053;-68
2023/02/08 22:01:43;;;;;;;18.85;12.25;;;;;;;-3.51;58.21;101690.28;10375052;28;20498;-68
2023/02/08 22:06:48;;;;;;;21.83;12.77;;;;;;;-3.53;58.23;101684.28;10370508;28;20095;-68
2023/02/08 22:11:50;;;;;;;27.70;15.18;;;;;;;-3.61;58.47;101672.13;10379427;28;20052;-68
2023/02/08 22:16:52;;;;;;;24.48;13.73;;;;;;;-3.62;58.55;101670.38;10377827;28;20493;-68
2023/02/08 22:21:55;;;;;;;23.73;13.82;;;;;;;-3.67;58.82;101663.44;10373495;28;20045;-68
2023/02/08 22:26:57;;;;;;;20.98;12.05;;;;;;;-3.78;58.83;101676.78;10374942;28;20041;-68
2023/02/08 22:31:59;;;;;;;20.55;10.45;;;;;;;-3.88;58.78;101678.25;10375827;28;20037;-68
2023/02/08 22:37:03;;;;;;;17.35;9.93;;;;;;;-3.92;59.34;101670.47;10374284;28;20506;-68
2023/02/08 22:42:12;;;;;;;16.73;10.18;;;;;;;-3.82;59.02;101680.09;10379240;28;20046;-69
2023/02/08 22:47:15;;;;;;;19.05;11.15;;;;;;;-4.05;59.02;101669.28;10372484;28;20469;-68
2023/02/08 22:52:16;;;;;;;16.95;10.75;;;;;;;-4.10;59.35;101678.50;10376504;28;21675;-67
2023/02/08 22:57:19;;;;;;;20.85;11.40;;;;;;;-4.06;59.41;101680.34;10371453;28;20057;-68
2023/02/08 23:02:20;;;;;;;24.13;12.70;;;;;;;-3.99;59.52;101684.75;10372850;28;20053;-68
2023/02/08 23:07:22;;;;;;;19.48;11.63;;;;;;;-4.13;59.76;101692.88;10377327;28;20529;-68
2023/02/08 23:12:24;;;;;;;21.52;12.65;;;;;;;-4.16;59.81;101692.81;10378036;28;20046;-68
2023/02/08 23:17:25;;;;;;;23.38;13.40;;;;;;;-4.09;59.84;101690.44;10374142;28;20045;-68